createdAt,value
2022-11-21T00:01:52.383Z,14.80
2022-11-21T00:04:18.682Z,16.23
2022-11-21T00:06:44.970Z,16.37
2022-11-21T00:09:11.195Z,15.80
2022-11-21T00:11:38.175Z,15.23
2022-11-21T00:14:04.412Z,15.23
2022-11-21T00:16:30.879Z,13.63
2022-11-21T00:18:57.855Z,13.50
2022-11-21T00:21:24.480Z,14.90
2022-11-21T00:23:52.520Z,15.07
2022-11-21T00:26:19.202Z,14.20
2022-11-21T00:28:46.322Z,14.37
2022-11-21T00:31:18.346Z,13.30
2022-11-21T00:33:44.890Z,14.73
2022-11-21T00:36:11.662Z,13.83
2022-11-21T00:38:38.227Z,14.57
2022-11-21T00:41:05.259Z,14.37
2022-11-21T00:43:32.167Z,14.33
2022-11-21T00:46:01.819Z,14.60
2022-11-21T00:48:29.093Z,14.90
2022-11-21T00:50:55.660Z,16.40
2022-11-21T00:53:22.235Z,16.77
2022-11-21T00:55:48.686Z,18.63
2022-11-21T00:58:15.176Z,17.73
2022-11-21T01:00:41.878Z,18.50
2022-11-21T01:03:09.313Z,18.63
2022-11-21T01:05:35.957Z,18.87
2022-11-21T01:08:02.527Z,17.87
2022-11-21T01:10:29.057Z,20.27
2022-11-21T01:12:55.762Z,21.27
2022-11-21T01:15:22.450Z,22.17
2022-11-21T01:17:49.465Z,24.83
2022-11-21T01:20:17.281Z,23.87
2022-11-21T01:22:44.350Z,25.40
2022-11-21T01:25:10.917Z,22.83
2022-11-21T01:27:37.568Z,25.10
2022-11-21T01:30:05.057Z,25.03
2022-11-21T01:32:31.624Z,25.13
2022-11-21T01:34:58.097Z,25.57
2022-11-21T01:37:25.108Z,24.43
2022-11-21T01:39:51.421Z,25.37
2022-11-21T01:42:17.677Z,25.33
2022-11-21T01:44:49.788Z,25.20
2022-11-21T01:47:16.399Z,25.13
2022-11-21T01:49:43.867Z,24.90
2022-11-21T01:52:12.770Z,25.70
2022-11-21T01:54:41.928Z,25.00
2022-11-21T01:57:11.258Z,25.50
2022-11-21T01:59:40.180Z,26.40
2022-11-21T02:02:08.411Z,26.73
2022-11-21T02:04:35.348Z,26.97
2022-11-21T02:07:03.909Z,26.17
2022-11-21T02:09:31.974Z,26.33
2022-11-21T02:12:02.802Z,26.50
2022-11-21T02:14:29.946Z,26.73
2022-11-21T02:16:58.488Z,28.40
2022-11-21T02:19:30.196Z,26.47
2022-11-21T02:22:01.343Z,26.37
2022-11-21T02:24:32.327Z,27.17
2022-11-21T02:26:59.981Z,25.17
2022-11-21T02:29:27.296Z,24.83
2022-11-21T02:31:53.832Z,26.23
2022-11-21T02:34:20.549Z,25.90
2022-11-21T02:36:47.759Z,25.83
2022-11-21T02:39:17.954Z,23.43
2022-11-21T02:41:51.405Z,23.80
2022-11-21T02:44:22.871Z,24.10
2022-11-21T02:46:50.776Z,26.20
2022-11-21T02:49:23.820Z,24.03
2022-11-21T02:51:50.455Z,24.83
2022-11-21T02:54:17.147Z,25.47
2022-11-21T02:56:43.707Z,25.77
2022-11-21T02:59:10.260Z,24.83
2022-11-21T03:01:37.584Z,23.77
2022-11-21T03:04:04.519Z,24.90
2022-11-21T03:06:31.007Z,23.73
2022-11-21T03:08:57.464Z,23.57
2022-11-21T03:11:23.910Z,24.83
2022-11-21T03:13:50.273Z,23.60
2022-11-21T03:16:16.953Z,23.97
2022-11-21T03:18:44.473Z,23.30
2022-11-21T03:21:10.987Z,24.20
2022-11-21T03:23:37.566Z,25.50
2022-11-21T03:26:04.056Z,24.73
2022-11-21T03:28:30.569Z,24.50
2022-11-21T03:30:57.091Z,25.17
2022-11-21T03:33:23.647Z,24.83
2022-11-21T03:35:50.830Z,24.60
2022-11-21T03:38:17.405Z,24.67
2022-11-21T03:40:43.831Z,25.40
2022-11-21T03:43:10.346Z,24.53
2022-11-21T03:45:36.829Z,25.23
2022-11-21T03:48:03.718Z,25.10
2022-11-21T03:50:30.456Z,25.13
2022-11-21T03:52:57.532Z,25.53
2022-11-21T03:55:23.906Z,25.07
2022-11-21T03:57:50.161Z,25.53
2022-11-21T04:00:17.220Z,25.67
2022-11-21T04:02:43.932Z,23.70
2022-11-21T04:05:10.311Z,24.57
2022-11-21T04:07:36.672Z,25.23
2022-11-21T04:10:04.105Z,26.83
2022-11-21T04:12:30.439Z,25.47
2022-11-21T04:14:57.034Z,25.37
2022-11-21T04:17:23.739Z,25.67
2022-11-21T04:19:50.129Z,26.60
2022-11-21T04:22:16.845Z,23.77
2022-11-21T04:24:43.538Z,24.43
2022-11-21T04:27:10.616Z,24.97
2022-11-21T04:29:37.294Z,24.13
2022-11-21T04:32:03.831Z,24.93
2022-11-21T04:34:30.750Z,24.97
2022-11-21T04:36:57.158Z,23.23
2022-11-21T04:39:23.455Z,23.87
2022-11-21T04:41:49.703Z,23.93
2022-11-21T04:44:16.705Z,24.60
2022-11-21T04:46:43.002Z,24.63
2022-11-21T04:49:09.472Z,24.60
2022-11-21T04:51:35.856Z,25.90
2022-11-21T04:54:02.408Z,25.43
2022-11-21T04:56:28.972Z,24.73
2022-11-21T04:58:55.507Z,25.73
2022-11-21T05:01:22.772Z,25.37
2022-11-21T05:03:49.236Z,25.90
2022-11-21T05:06:15.868Z,26.97
2022-11-21T05:08:42.344Z,26.80
2022-11-21T05:11:27.142Z,26.00
2022-11-21T05:13:53.670Z,26.00
2022-11-21T05:16:22.985Z,24.30
2022-11-21T05:18:50.399Z,26.60
2022-11-21T05:21:16.682Z,25.13
2022-11-21T05:23:42.965Z,25.70
2022-11-21T05:26:09.443Z,25.80
2022-11-21T05:28:35.809Z,27.97
2022-11-21T05:31:02.355Z,26.37
2022-11-21T05:33:28.495Z,26.60
2022-11-21T05:35:55.279Z,27.97
2022-11-21T05:38:21.456Z,25.23
2022-11-21T05:40:47.583Z,25.33
2022-11-21T05:43:32.146Z,26.10
2022-11-21T05:45:58.399Z,24.77
2022-11-21T05:48:24.535Z,26.30
2022-11-21T05:50:50.670Z,26.10
2022-11-21T05:53:17.631Z,26.97
2022-11-21T05:55:43.808Z,26.27
2022-11-21T05:58:10.408Z,27.20
2022-11-21T06:00:36.826Z,27.10
2022-11-21T06:03:21.200Z,24.30
2022-11-21T06:05:47.369Z,25.70
2022-11-21T06:08:13.552Z,26.43
2022-11-21T06:10:40.374Z,25.73
2022-11-21T06:13:21.148Z,25.37
2022-11-21T06:15:49.390Z,24.70
2022-11-21T06:18:15.520Z,25.40
2022-11-21T06:20:41.636Z,27.57
2022-11-21T06:23:07.767Z,26.13
2022-11-21T06:25:33.913Z,26.87
2022-11-21T06:28:00.709Z,27.43
2022-11-21T06:30:26.839Z,26.33
2022-11-21T06:32:53.066Z,25.53
2022-11-21T06:35:19.433Z,26.70
2022-11-21T06:37:49.585Z,26.77
2022-11-21T06:40:18.363Z,25.67
2022-11-21T06:42:44.591Z,26.83
2022-11-21T06:45:11.358Z,27.27
2022-11-21T06:47:37.509Z,26.97
2022-11-21T06:50:04.004Z,26.80
2022-11-21T06:52:32.386Z,27.63
2022-11-21T06:54:59.048Z,26.07
2022-11-21T06:57:25.166Z,26.53
2022-11-21T06:59:51.268Z,24.07
2022-11-21T07:02:18.071Z,26.10
2022-11-21T07:04:44.236Z,25.33
2022-11-21T07:07:10.413Z,25.03
2022-11-21T07:09:36.564Z,25.30
2022-11-21T07:12:17.482Z,26.10
2022-11-21T07:14:43.629Z,26.20
2022-11-21T07:17:10.763Z,25.73
2022-11-21T07:19:40.879Z,25.57
2022-11-21T07:22:07.839Z,25.03
2022-11-21T07:24:34.243Z,23.90
2022-11-21T07:27:01.003Z,24.93
2022-11-21T07:29:27.445Z,24.60
2022-11-21T07:31:54.446Z,26.23
2022-11-21T07:34:20.619Z,24.97
2022-11-21T07:36:47.398Z,26.47
2022-11-21T07:39:13.597Z,25.47
2022-11-21T07:41:39.725Z,24.10
2022-11-21T07:44:06.079Z,24.00
2022-11-21T07:46:32.479Z,25.73
2022-11-21T07:49:03.113Z,25.13
2022-11-21T07:51:30.155Z,24.93
2022-11-21T07:53:57.155Z,25.60
2022-11-21T07:56:25.788Z,24.97
2022-11-21T07:58:52.518Z,23.47
2022-11-21T08:01:18.716Z,26.90
2022-11-21T08:03:44.833Z,25.70
2022-11-21T08:06:12.499Z,25.17
2022-11-21T08:08:38.694Z,23.50
2022-11-21T08:11:06.461Z,24.13
2022-11-21T08:13:32.745Z,24.00
2022-11-21T08:15:58.886Z,23.17
2022-11-21T08:18:25.572Z,23.13
2022-11-21T08:20:51.719Z,22.30
2022-11-21T08:23:17.910Z,22.30
2022-11-21T08:25:44.764Z,22.57
2022-11-21T08:28:11.633Z,21.97
2022-11-21T08:30:38.182Z,21.60
2022-11-21T08:33:05.239Z,22.37
2022-11-21T08:35:31.625Z,22.13
2022-11-21T08:37:58.479Z,22.33
2022-11-21T08:40:25.345Z,20.43
2022-11-21T08:42:56.164Z,19.77
2022-11-21T08:45:22.944Z,20.73
2022-11-21T08:47:49.083Z,19.03
2022-11-21T08:50:15.511Z,19.00
2022-11-21T08:52:41.638Z,16.80
2022-11-21T08:55:09.252Z,17.37
2022-11-21T08:57:37.521Z,18.33
2022-11-21T09:00:04.833Z,14.93
2022-11-21T09:02:31.837Z,14.43
2022-11-21T09:04:58.966Z,12.97
2022-11-21T09:07:25.382Z,12.20
2022-11-21T09:09:51.671Z,11.90
2022-11-21T09:12:17.848Z,11.70
2022-11-21T09:15:02.187Z,11.93
2022-11-21T09:17:47.892Z,11.63
2022-11-21T09:20:15.127Z,11.10
2022-11-21T09:22:41.357Z,11.17
2022-11-21T09:25:08.217Z,10.20
2022-11-21T09:27:34.326Z,10.20
2022-11-21T09:30:00.526Z,9.37
2022-11-21T09:32:26.717Z,9.43
2022-11-21T09:34:52.893Z,10.00
2022-11-21T09:37:19.679Z,10.07
2022-11-21T09:39:45.865Z,10.00
2022-11-21T09:42:54.115Z,9.63
2022-11-21T09:45:23.108Z,9.27
2022-11-21T09:47:50.583Z,9.10
2022-11-21T09:50:24.851Z,9.87
2022-11-21T09:52:55.759Z,9.90
2022-11-21T09:55:26.338Z,9.00
2022-11-21T09:57:52.482Z,8.63
2022-11-21T10:00:20.594Z,8.70
2022-11-21T10:02:47.087Z,9.87
2022-11-21T10:05:14.113Z,8.53
2022-11-21T10:07:41.297Z,8.53
2022-11-21T10:10:18.929Z,8.43
2022-11-21T10:12:53.959Z,9.27
2022-11-21T10:15:29.661Z,8.87
2022-11-21T10:18:19.471Z,9.03
2022-11-21T10:20:52.553Z,8.50
2022-11-21T10:23:35.876Z,8.43
2022-11-21T10:26:14.567Z,8.43
2022-11-21T10:28:45.679Z,7.53
2022-11-21T10:31:13.129Z,7.80
2022-11-21T10:33:40.244Z,8.57
2022-11-21T10:36:11.845Z,8.13
2022-11-21T10:38:40.861Z,8.17
2022-11-21T10:41:15.350Z,8.10
2022-11-21T10:44:02.004Z,7.80
2022-11-21T10:46:28.222Z,8.40
2022-11-21T10:48:56.480Z,7.83
2022-11-21T10:51:33.351Z,7.87
2022-11-21T10:54:31.234Z,7.70
2022-11-21T10:57:01.031Z,6.97
2022-11-21T10:59:30.840Z,7.10
2022-11-21T11:01:59.055Z,6.63
2022-11-21T11:04:28.159Z,6.63
2022-11-21T11:06:55.576Z,7.47
2022-11-21T11:09:23.514Z,6.93
2022-11-21T11:11:49.790Z,8.07
2022-11-21T11:14:28.594Z,7.73
2022-11-21T11:16:55.061Z,8.37
2022-11-21T11:19:32.665Z,8.70
2022-11-21T11:22:02.216Z,9.30
2022-11-21T11:24:28.389Z,8.43
2022-11-21T11:26:59.730Z,8.03
2022-11-21T11:29:29.739Z,7.33
2022-11-21T11:31:59.477Z,6.87
2022-11-21T11:34:28.544Z,7.03
2022-11-21T11:36:59.172Z,8.00
2022-11-21T11:39:36.851Z,7.27
2022-11-21T11:42:42.539Z,7.70
2022-11-21T11:45:34.421Z,6.73
2022-11-21T11:48:01.816Z,6.87
2022-11-21T11:50:32.010Z,6.67
2022-11-21T11:53:04.108Z,6.67
2022-11-21T11:55:35.957Z,7.50
2022-11-21T11:58:06.312Z,6.60
2022-11-21T12:00:39.292Z,6.90
2022-11-21T12:03:11.870Z,5.57
2022-11-21T12:05:52.254Z,5.97
2022-11-21T12:11:33.268Z,6.20
2022-11-21T12:14:08.502Z,5.60
2022-11-21T12:16:36.382Z,5.30
2022-11-21T12:19:08.082Z,5.93
2022-11-21T12:21:34.280Z,7.10
2022-11-21T12:24:03.094Z,5.40
2022-11-21T12:26:44.516Z,4.80
2022-11-21T12:29:34.292Z,4.07
2022-11-21T12:32:26.385Z,4.27
2022-11-21T12:35:04.339Z,3.50
2022-11-21T12:37:39.223Z,2.57
2022-11-21T12:40:11.894Z,2.53
2022-11-21T12:42:50.345Z,2.87
2022-11-21T12:45:34.327Z,2.43
2022-11-21T12:48:31.426Z,3.20
2022-11-21T12:51:53.514Z,3.47
2022-11-21T12:54:35.022Z,3.50
2022-11-21T12:57:08.414Z,4.07
2022-11-21T12:59:42.313Z,4.00
2022-11-21T13:02:24.536Z,4.20
2022-11-21T13:04:53.372Z,4.80
2022-11-21T13:07:20.598Z,4.60
2022-11-21T13:09:48.803Z,4.73
2022-11-21T13:12:19.281Z,4.53
2022-11-21T13:14:49.120Z,4.70
2022-11-21T13:17:36.673Z,3.90
2022-11-21T13:20:06.447Z,4.60
2022-11-21T13:22:50.076Z,4.40
2022-11-21T13:25:38.635Z,4.87
2022-11-21T13:28:38.042Z,4.07
2022-11-21T13:31:31.495Z,2.30
2022-11-21T13:33:58.250Z,1.60
2022-11-21T13:36:38.534Z,1.40
2022-11-21T13:39:35.411Z,1.33
2022-11-21T13:42:30.467Z,1.80
2022-11-21T13:44:57.307Z,1.90
2022-11-21T13:48:15.401Z,1.97
2022-11-21T13:51:03.238Z,1.50
2022-11-21T13:53:46.210Z,1.60
2022-11-21T13:56:25.098Z,1.67
2022-11-21T13:59:00.035Z,1.40
2022-11-21T14:01:39.580Z,1.53
2022-11-21T14:04:37.801Z,1.83
2022-11-21T14:07:21.016Z,1.47
2022-11-21T14:09:49.478Z,1.60
2022-11-21T14:12:20.592Z,1.70
2022-11-21T14:14:50.183Z,1.40
2022-11-21T14:17:33.728Z,1.70
2022-11-21T14:20:07.752Z,1.60
2022-11-21T14:22:45.047Z,1.87
2022-11-21T14:25:17.470Z,1.60
2022-11-21T14:27:47.275Z,1.63
2022-11-21T14:30:32.463Z,1.70
2022-11-21T14:33:23.756Z,1.60
2022-11-21T14:35:52.598Z,1.67
2022-11-21T14:38:19.378Z,2.10
2022-11-21T14:40:46.261Z,1.43
2022-11-21T14:43:28.743Z,2.00
2022-11-21T14:45:54.895Z,1.97
2022-11-21T14:48:25.896Z,1.43
2022-11-21T14:50:52.123Z,1.67
2022-11-21T14:53:18.346Z,1.93
2022-11-21T14:55:49.580Z,1.60
2022-11-21T14:58:16.043Z,1.83
2022-11-21T15:01:02.323Z,1.67
2022-11-21T15:03:28.717Z,1.50
2022-11-21T15:06:05.862Z,1.47
2022-11-21T15:11:23.185Z,1.70
2022-11-21T15:14:14.430Z,1.53
2022-11-21T15:16:38.129Z,2.60
2022-11-21T15:19:08.597Z,2.40
2022-11-21T15:21:35.114Z,1.60
2022-11-21T15:24:15.748Z,1.70
2022-11-21T15:26:42.566Z,3.20
2022-11-21T15:29:18.676Z,2.27
2022-11-21T15:31:46.257Z,2.03
2022-11-21T15:34:34.192Z,1.80
2022-11-21T15:37:04.215Z,2.00
2022-11-21T15:39:30.587Z,1.90
2022-11-21T15:42:27.523Z,2.17
2022-11-21T15:44:58.726Z,2.20
2022-11-21T15:47:24.879Z,2.63
2022-11-21T15:49:51.012Z,2.57
2022-11-21T15:52:17.268Z,1.60
2022-11-21T15:54:43.454Z,1.87
2022-11-21T15:57:09.763Z,2.07
2022-11-21T15:59:36.706Z,2.20
2022-11-21T16:02:02.931Z,2.27
2022-11-21T16:04:29.187Z,2.33
2022-11-21T16:06:55.333Z,3.07
2022-11-21T16:09:21.488Z,2.60
2022-11-21T16:11:47.653Z,2.53
2022-11-21T16:14:15.442Z,2.23
2022-11-21T16:16:43.701Z,2.27
2022-11-21T16:19:10.874Z,2.67
2022-11-21T16:21:37.073Z,2.57
2022-11-21T16:24:03.643Z,2.30
2022-11-21T16:26:29.792Z,2.90
2022-11-21T16:28:56.083Z,1.97
2022-11-21T16:31:23.275Z,2.30
2022-11-21T16:33:50.248Z,2.10
2022-11-21T16:36:19.657Z,2.10
2022-11-21T16:38:47.042Z,2.10
2022-11-21T16:41:13.520Z,3.37
2022-11-21T16:43:45.822Z,5.30
2022-11-21T16:46:12.416Z,2.30
2022-11-21T16:48:38.619Z,2.57
2022-11-21T16:51:11.091Z,2.00
2022-11-21T16:53:37.609Z,1.93
2022-11-21T16:56:04.224Z,2.50
2022-11-21T16:58:30.427Z,1.80
2022-11-21T17:00:56.719Z,2.20
2022-11-21T17:03:23.049Z,2.00
2022-11-21T17:05:56.186Z,2.30
2022-11-21T17:08:23.016Z,2.47
2022-11-21T17:10:49.495Z,2.20
2022-11-21T17:13:16.354Z,2.40
2022-11-21T17:15:42.568Z,2.30
2022-11-21T17:18:08.741Z,3.20
2022-11-21T17:20:34.858Z,3.53
2022-11-21T17:23:01.959Z,2.73
2022-11-21T17:25:28.896Z,2.90
2022-11-21T17:27:55.060Z,2.37
2022-11-21T17:30:21.779Z,2.13
2022-11-21T17:32:48.019Z,2.23
2022-11-21T17:35:14.331Z,2.40
2022-11-21T17:37:40.527Z,2.97
2022-11-21T17:40:11.255Z,2.20
2022-11-21T17:42:39.926Z,2.40
2022-11-21T17:45:07.190Z,1.97
2022-11-21T17:47:33.840Z,2.37
2022-11-21T17:50:05.389Z,2.57
2022-11-21T17:52:32.426Z,2.27
2022-11-21T17:54:58.607Z,1.87
2022-11-21T17:57:25.176Z,2.80
2022-11-21T17:59:52.054Z,2.40
2022-11-21T18:02:20.322Z,2.20
2022-11-21T18:04:47.120Z,3.00
2022-11-21T18:07:13.481Z,2.80
2022-11-21T18:09:39.791Z,2.33
2022-11-21T18:12:06.136Z,2.60
2022-11-21T18:14:32.302Z,2.80
2022-11-21T18:16:59.139Z,2.20
2022-11-21T18:19:25.287Z,2.03
2022-11-21T18:21:51.467Z,2.10
2022-11-21T18:24:18.255Z,2.47
2022-11-21T18:26:44.626Z,2.27
2022-11-21T18:29:35.224Z,2.37
2022-11-21T18:31:57.024Z,2.53
2022-11-21T18:34:23.817Z,2.10
2022-11-21T18:36:50.011Z,2.27
2022-11-21T18:39:16.213Z,2.03
2022-11-21T18:41:42.966Z,2.30
2022-11-21T18:44:09.367Z,2.53
2022-11-21T18:46:36.591Z,2.50
2022-11-21T18:49:06.408Z,2.57
2022-11-21T18:51:34.904Z,3.73
2022-11-21T18:54:04.334Z,2.20
2022-11-21T18:56:30.735Z,2.23
2022-11-21T18:58:58.805Z,2.57
2022-11-21T19:01:26.850Z,2.60
2022-11-21T19:03:54.222Z,2.90
2022-11-21T19:06:21.971Z,2.87
2022-11-21T19:08:49.950Z,3.70
2022-11-21T19:11:16.987Z,3.20
2022-11-21T19:13:43.829Z,3.00
2022-11-21T19:16:11.876Z,2.57
2022-11-21T19:18:41.181Z,2.40
2022-11-21T19:21:11.533Z,2.70
2022-11-21T19:23:39.677Z,2.40
2022-11-21T19:26:08.686Z,3.53
2022-11-21T19:28:35.357Z,3.33
2022-11-21T19:31:02.599Z,3.23
2022-11-21T19:33:29.613Z,2.80
2022-11-21T19:36:00.519Z,2.40
2022-11-21T19:38:26.689Z,2.23
2022-11-21T19:41:11.303Z,2.67
2022-11-21T19:43:38.182Z,2.50
2022-11-21T19:46:05.297Z,2.63
2022-11-21T19:48:31.481Z,2.77
2022-11-21T19:50:58.771Z,2.77
2022-11-21T19:53:26.334Z,2.93
2022-11-21T19:55:52.536Z,3.33
2022-11-21T19:58:19.135Z,2.23
2022-11-21T20:00:46.060Z,2.43
2022-11-21T20:03:12.361Z,2.70
2022-11-21T20:05:38.539Z,2.60
2022-11-21T20:08:14.289Z,2.80
2022-11-21T20:10:43.449Z,3.00
2022-11-21T20:13:10.022Z,3.17
2022-11-21T20:15:38.179Z,2.80
2022-11-21T20:18:05.222Z,2.63
2022-11-21T20:20:31.603Z,2.30
2022-11-21T20:22:57.879Z,2.40
2022-11-21T20:25:24.128Z,2.70
2022-11-21T20:27:50.956Z,2.17
2022-11-21T20:30:17.514Z,3.30
2022-11-21T20:32:43.963Z,2.73
2022-11-21T20:35:11.263Z,2.53
2022-11-21T20:37:37.447Z,2.40
2022-11-21T20:40:04.213Z,2.50
2022-11-21T20:42:30.452Z,2.33
2022-11-21T20:45:54.515Z,2.73
2022-11-21T20:47:42.769Z,2.80
2022-11-21T20:50:09.827Z,2.90
2022-11-21T20:55:22.946Z,2.90
2022-11-21T20:57:49.296Z,2.53
2022-11-21T21:00:16.554Z,2.70
2022-11-21T21:02:42.720Z,2.83
2022-11-21T21:05:09.488Z,3.10
2022-11-21T21:07:36.373Z,2.90
2022-11-21T21:10:02.853Z,2.53
2022-11-21T21:12:30.555Z,2.60
2022-11-21T21:14:56.719Z,3.00
2022-11-21T21:17:22.933Z,3.10
2022-11-21T21:19:49.164Z,3.10
2022-11-21T21:22:15.381Z,2.50
2022-11-21T21:24:42.173Z,2.77
2022-11-21T21:27:08.273Z,2.70
2022-11-21T21:29:34.398Z,2.37
2022-11-21T21:32:00.634Z,2.70
2022-11-21T21:34:26.855Z,2.90
2022-11-21T21:36:53.058Z,3.30
2022-11-21T21:39:19.232Z,2.60
2022-11-21T21:41:46.767Z,2.87
2022-11-21T21:44:13.703Z,3.07
2022-11-21T21:46:39.850Z,2.30
2022-11-21T21:49:06.000Z,2.40
2022-11-21T21:51:32.274Z,2.80
2022-11-21T21:53:59.211Z,2.73
2022-11-21T21:56:27.125Z,2.57
2022-11-21T21:58:54.205Z,2.47
2022-11-21T22:01:22.209Z,2.60
2022-11-21T22:03:52.351Z,2.80
2022-11-21T22:06:18.983Z,2.43
2022-11-21T22:08:46.122Z,2.63
2022-11-21T22:11:13.639Z,2.63
2022-11-21T22:13:41.695Z,2.77
2022-11-21T22:16:11.406Z,2.53
2022-11-21T22:18:37.640Z,2.33
2022-11-21T22:21:12.680Z,2.30
2022-11-21T22:23:51.232Z,2.63
2022-11-21T22:26:24.934Z,2.50
2022-11-21T22:28:51.119Z,2.10
2022-11-21T22:31:18.119Z,2.40
2022-11-21T22:33:45.253Z,2.40
2022-11-21T22:36:12.690Z,2.63
2022-11-21T22:38:39.028Z,2.40
2022-11-21T22:41:06.739Z,2.20
2022-11-21T22:43:33.067Z,2.47
2022-11-21T22:46:00.031Z,1.87
2022-11-21T22:48:26.880Z,2.67
2022-11-21T22:50:53.059Z,2.30
2022-11-21T22:53:19.199Z,2.50
2022-11-21T22:55:45.422Z,1.80
2022-11-21T22:58:11.566Z,2.20
2022-11-21T23:00:37.736Z,2.30
2022-11-21T23:03:03.885Z,2.27
2022-11-21T23:05:30.664Z,2.10
2022-11-21T23:07:56.835Z,2.43
2022-11-21T23:10:23.027Z,1.97
2022-11-21T23:12:49.153Z,2.10
2022-11-21T23:15:15.412Z,1.77
2022-11-21T23:17:41.566Z,2.10
2022-11-21T23:20:08.774Z,2.07
2022-11-21T23:22:35.563Z,2.70
2022-11-21T23:25:01.736Z,1.90
2022-11-21T23:27:27.927Z,1.90
2022-11-21T23:29:54.112Z,1.97
2022-11-21T23:32:20.290Z,1.67
2022-11-21T23:34:46.427Z,2.30
2022-11-21T23:37:12.560Z,2.00
2022-11-21T23:39:39.422Z,1.97
2022-11-21T23:42:05.593Z,2.23
2022-11-21T23:44:31.779Z,2.30
2022-11-21T23:46:57.944Z,2.20
2022-11-21T23:49:24.115Z,2.23
2022-11-21T23:51:50.222Z,2.23
2022-11-21T23:54:16.481Z,1.80
2022-11-21T23:56:43.221Z,2.20
2022-11-21T23:59:10.906Z,2.10
